createdAt,value
2019-05-12T00:01:23.344Z,6.20
2019-05-12T00:03:58.098Z,5.63
2019-05-12T00:06:31.420Z,5.70
2019-05-12T00:09:07.928Z,5.57
2019-05-12T00:11:42.993Z,5.70
2019-05-12T00:14:17.638Z,5.90
2019-05-12T00:16:49.217Z,5.93
2019-05-12T00:19:21.627Z,6.67
2019-05-12T00:21:53.293Z,5.70
2019-05-12T00:24:28.213Z,6.03
2019-05-12T00:27:04.958Z,5.43
2019-05-12T00:29:37.804Z,5.70
2019-05-12T00:32:09.479Z,5.80
2019-05-12T00:34:43.584Z,6.10
2019-05-12T00:37:18.493Z,6.40
2019-05-12T00:39:50.616Z,6.80
2019-05-12T00:42:24.408Z,7.17
2019-05-12T00:44:58.546Z,6.60
2019-05-12T00:47:31.673Z,7.30
2019-05-12T00:50:04.739Z,7.20
2019-05-12T00:52:38.794Z,6.63
2019-05-12T00:55:12.709Z,7.10
2019-05-12T00:57:45.574Z,8.67
2019-05-12T01:00:19.942Z,7.90
2019-05-12T01:02:51.738Z,8.20
2019-05-12T01:05:23.764Z,8.87
2019-05-12T01:07:58.239Z,8.70
2019-05-12T01:10:31.191Z,8.70
2019-05-12T01:13:04.823Z,9.20
2019-05-12T01:15:38.630Z,9.90
2019-05-12T01:18:13.478Z,9.83
2019-05-12T01:20:47.967Z,10.87
2019-05-12T01:23:23.533Z,9.97
2019-05-12T01:25:59.118Z,9.97
2019-05-12T01:28:31.685Z,11.33
2019-05-12T01:31:05.225Z,11.70
2019-05-12T01:33:41.520Z,11.00
2019-05-12T01:36:18.036Z,11.80
2019-05-12T01:38:51.927Z,11.50
2019-05-12T01:41:23.287Z,11.93
2019-05-12T01:43:58.462Z,11.90
2019-05-12T01:46:30.760Z,12.27
2019-05-12T01:49:03.801Z,12.17
2019-05-12T01:51:38.522Z,12.30
2019-05-12T01:54:15.017Z,14.17
2019-05-12T01:56:48.370Z,13.77
2019-05-12T01:59:21.320Z,13.60
2019-05-12T02:01:52.971Z,13.50
2019-05-12T02:04:25.917Z,13.27
2019-05-12T02:06:59.047Z,15.30
2019-05-12T02:09:34.621Z,14.77
2019-05-12T02:12:08.139Z,16.20
2019-05-12T02:14:43.559Z,15.43
2019-05-12T02:17:17.937Z,16.87
2019-05-12T02:19:50.061Z,16.60
2019-05-12T02:22:24.008Z,16.47
2019-05-12T02:24:58.729Z,17.53
2019-05-12T02:27:30.228Z,19.00
2019-05-12T02:30:03.345Z,18.10
2019-05-12T02:32:48.158Z,18.10
2019-05-12T02:35:15.883Z,19.23
2019-05-12T02:37:48.051Z,17.93
2019-05-12T02:40:24.888Z,18.00
2019-05-12T02:42:57.077Z,17.87
2019-05-12T02:45:29.154Z,17.80
2019-05-12T02:48:01.027Z,17.40
2019-05-12T02:50:37.939Z,17.13
2019-05-12T02:53:09.909Z,18.20
2019-05-12T02:55:45.233Z,18.30
2019-05-12T02:58:25.185Z,18.90
2019-05-12T03:00:57.825Z,17.40
2019-05-12T03:03:35.005Z,18.60
2019-05-12T03:06:07.274Z,18.30
2019-05-12T03:08:44.851Z,16.80
2019-05-12T03:11:17.850Z,15.50
2019-05-12T03:13:51.186Z,13.83
2019-05-12T03:16:25.650Z,11.43
2019-05-12T03:18:58.242Z,9.53
2019-05-12T03:21:31.233Z,7.70
2019-05-12T03:24:06.070Z,6.27
2019-05-12T03:26:38.234Z,6.00
2019-05-12T03:29:14.792Z,4.90
2019-05-12T03:31:48.882Z,4.30
2019-05-12T03:34:20.979Z,3.83
2019-05-12T03:36:58.949Z,3.93
2019-05-12T03:39:34.245Z,3.10
2019-05-12T03:42:06.351Z,3.17
2019-05-12T03:44:44.495Z,2.70
2019-05-12T03:47:18.105Z,3.30
2019-05-12T03:49:50.313Z,2.67
2019-05-12T03:52:24.410Z,3.10
2019-05-12T03:54:57.291Z,3.13
2019-05-12T03:57:34.273Z,2.47
2019-05-12T04:00:05.365Z,2.87
2019-05-12T04:02:39.431Z,2.27
2019-05-12T04:05:15.168Z,2.43
2019-05-12T04:07:45.365Z,3.00
2019-05-12T04:10:18.385Z,3.20
2019-05-12T04:12:54.860Z,2.90
2019-05-12T04:15:28.172Z,2.73
2019-05-12T04:18:04.915Z,2.43
2019-05-12T04:20:38.194Z,3.67
2019-05-12T04:23:09.555Z,2.73
2019-05-12T04:25:51.937Z,3.13
2019-05-12T04:28:20.581Z,3.00
2019-05-12T04:30:54.513Z,3.00
2019-05-12T04:33:27.488Z,3.30
2019-05-12T04:36:00.645Z,3.43
2019-05-12T04:38:35.497Z,3.77
2019-05-12T04:41:07.701Z,3.77
2019-05-12T04:43:44.646Z,4.20
2019-05-12T04:46:15.695Z,4.53
2019-05-12T04:48:49.711Z,4.20
2019-05-12T04:51:25.862Z,3.77
2019-05-12T04:53:56.871Z,3.70
2019-05-12T04:56:29.816Z,3.73
2019-05-12T04:59:04.976Z,4.30
2019-05-12T05:01:36.677Z,4.20
2019-05-12T05:04:10.968Z,4.73
2019-05-12T05:06:45.199Z,3.73
2019-05-12T05:09:17.799Z,4.57
2019-05-12T05:11:54.303Z,5.30
2019-05-12T05:14:27.653Z,4.23
2019-05-12T05:16:59.282Z,5.13
2019-05-12T05:19:33.731Z,5.27
2019-05-12T05:22:05.794Z,5.77
2019-05-12T05:24:39.885Z,5.73
2019-05-12T05:27:13.375Z,5.00
2019-05-12T05:29:46.742Z,4.00
2019-05-12T05:32:19.851Z,4.70
2019-05-12T05:34:57.787Z,3.73
2019-05-12T05:37:44.121Z,4.20
2019-05-12T05:40:28.445Z,4.70
2019-05-12T05:43:05.733Z,4.67
2019-05-12T05:45:54.518Z,4.27
2019-05-12T05:48:48.350Z,4.20
2019-05-12T05:51:21.056Z,4.87
2019-05-12T05:53:54.015Z,4.50
2019-05-12T05:56:42.459Z,4.37
2019-05-12T05:59:31.472Z,3.87
2019-05-12T06:02:08.210Z,4.13
2019-05-12T06:04:49.885Z,4.17
2019-05-12T06:07:39.601Z,4.00
2019-05-12T06:10:11.282Z,3.60
2019-05-12T06:12:46.426Z,3.47
2019-05-12T06:15:53.610Z,3.50
2019-05-12T06:18:39.377Z,3.80
2019-05-12T06:21:46.465Z,2.70
2019-05-12T06:24:35.787Z,4.00
2019-05-12T06:27:20.304Z,3.50
2019-05-12T06:30:17.827Z,3.13
2019-05-12T06:33:00.372Z,3.23
2019-05-12T06:36:13.779Z,2.70
2019-05-12T06:38:59.480Z,2.53
2019-05-12T06:41:50.231Z,2.57
2019-05-12T06:44:39.808Z,2.20
2019-05-12T06:47:28.686Z,2.00
2019-05-12T06:50:19.115Z,2.00
2019-05-12T06:52:53.131Z,1.73
2019-05-12T06:55:34.340Z,2.40
2019-05-12T06:58:38.595Z,2.30
2019-05-12T07:01:49.900Z,1.90
2019-05-12T07:04:59.404Z,1.80
2019-05-12T07:07:35.579Z,2.13
2019-05-12T07:10:11.626Z,1.77
2019-05-12T07:12:43.565Z,2.17
2019-05-12T07:15:16.278Z,1.50
2019-05-12T07:17:55.851Z,1.40
2019-05-12T07:21:04.184Z,1.37
2019-05-12T07:23:37.286Z,1.13
2019-05-12T07:26:48.134Z,1.07
2019-05-12T07:29:47.136Z,1.63
2019-05-12T07:32:59.649Z,1.07
2019-05-12T07:36:06.458Z,1.40
2019-05-12T07:38:43.267Z,1.30
2019-05-12T07:41:52.686Z,1.90
2019-05-12T07:44:44.102Z,1.53
2019-05-12T07:47:38.292Z,2.10
2019-05-12T07:50:50.131Z,1.80
2019-05-12T07:53:38.590Z,1.70
2019-05-12T07:56:10.042Z,1.50
2019-05-12T07:58:47.466Z,2.03
2019-05-12T08:01:28.348Z,1.97
2019-05-12T08:04:39.954Z,2.10
2019-05-12T08:07:10.520Z,1.93
2019-05-12T08:09:43.248Z,1.67
2019-05-12T08:12:16.445Z,1.60
2019-05-12T08:14:49.217Z,1.50
2019-05-12T08:17:59.557Z,1.33
2019-05-12T08:20:34.426Z,1.90
2019-05-12T08:23:10.690Z,1.43
2019-05-12T08:25:43.774Z,1.17
2019-05-12T08:28:19.320Z,1.10
2019-05-12T08:30:52.196Z,1.50
2019-05-12T08:33:24.196Z,1.30
2019-05-12T08:35:57.048Z,1.20
2019-05-12T08:38:29.150Z,1.40
2019-05-12T08:41:00.623Z,1.50
2019-05-12T08:43:34.208Z,1.40
2019-05-12T08:46:12.086Z,1.03
2019-05-12T08:48:44.806Z,1.23
2019-05-12T08:51:19.432Z,1.50
2019-05-12T08:53:56.150Z,1.40
2019-05-12T08:56:27.005Z,1.80
2019-05-12T09:01:34.153Z,1.50
2019-05-12T09:04:12.112Z,1.60
2019-05-12T09:06:40.470Z,1.60
2019-05-12T09:11:44.024Z,1.93
2019-05-12T09:14:15.563Z,1.40
2019-05-12T09:16:55.961Z,1.50
2019-05-12T09:19:26.641Z,1.60
2019-05-12T09:21:56.639Z,1.73
2019-05-12T09:26:58.991Z,1.37
2019-05-12T09:29:29.153Z,1.70
2019-05-12T09:32:05.323Z,1.77
2019-05-12T09:34:44.756Z,2.10
2019-05-12T09:37:14.251Z,1.70
2019-05-12T09:39:47.812Z,1.90
2019-05-12T09:42:25.594Z,1.57
2019-05-12T09:44:54.163Z,1.80
2019-05-12T09:47:27.728Z,2.00
2019-05-12T09:49:58.780Z,1.97
2019-05-12T09:52:30.157Z,1.70
2019-05-12T09:55:04.076Z,1.90
2019-05-12T09:57:40.784Z,1.77
2019-05-12T10:00:09.218Z,2.17
2019-05-12T10:02:40.504Z,2.10
2019-05-12T10:05:14.445Z,1.93
2019-05-12T10:07:46.023Z,1.93
2019-05-12T10:10:17.501Z,2.30
2019-05-12T10:12:50.636Z,1.83
2019-05-12T10:15:28.577Z,2.30
2019-05-12T10:18:00.257Z,1.20
2019-05-12T10:20:35.243Z,0.90
2019-05-12T10:23:10.102Z,0.73
2019-05-12T10:25:44.358Z,0.70
2019-05-12T10:28:16.268Z,0.70
2019-05-12T10:30:55.308Z,0.80
2019-05-12T10:33:23.122Z,0.93
2019-05-12T10:35:54.424Z,0.60
2019-05-12T10:38:27.664Z,0.70
2019-05-12T10:40:59.098Z,1.10
2019-05-12T10:43:30.410Z,0.77
2019-05-12T10:46:04.191Z,0.67
2019-05-12T10:48:37.109Z,0.90
2019-05-12T10:51:08.639Z,1.30
2019-05-12T10:53:48.757Z,0.87
2019-05-12T10:56:34.999Z,1.00
2019-05-12T10:59:13.361Z,1.63
2019-05-12T11:01:48.853Z,0.83
2019-05-12T11:04:36.844Z,1.17
2019-05-12T11:07:23.050Z,0.97
2019-05-12T11:10:15.147Z,1.07
2019-05-12T11:12:47.892Z,1.00
2019-05-12T11:15:39.685Z,1.27
2019-05-12T11:18:30.527Z,1.00
2019-05-12T11:21:13.927Z,1.30
2019-05-12T11:23:58.778Z,1.00
2019-05-12T11:26:33.854Z,1.03
2019-05-12T11:29:05.502Z,0.93
2019-05-12T11:31:39.993Z,1.10
2019-05-12T11:34:11.612Z,1.40
2019-05-12T11:36:49.198Z,1.07
2019-05-12T11:39:38.690Z,1.37
2019-05-12T11:42:07.901Z,2.00
2019-05-12T11:44:53.821Z,1.30
2019-05-12T11:47:28.871Z,1.60
2019-05-12T11:50:09.906Z,1.93
2019-05-12T11:52:52.334Z,2.40
2019-05-12T11:55:29.345Z,2.43
2019-05-12T11:58:00.368Z,2.20
2019-05-12T12:00:47.622Z,2.50
2019-05-12T12:03:23.368Z,2.43
2019-05-12T12:06:14.818Z,2.43
2019-05-12T12:08:46.224Z,2.60
2019-05-12T12:11:25.547Z,3.30
2019-05-12T12:14:00.232Z,2.97
2019-05-12T12:16:28.544Z,3.00
2019-05-12T12:19:16.847Z,3.30
2019-05-12T12:21:49.990Z,2.43
2019-05-12T12:24:30.067Z,3.40
2019-05-12T12:26:54.830Z,3.00
2019-05-12T12:29:27.981Z,3.07
2019-05-12T12:31:59.522Z,2.33
2019-05-12T12:34:33.055Z,2.70
2019-05-12T12:37:24.093Z,2.80
2019-05-12T12:39:55.011Z,2.60
2019-05-12T12:42:30.306Z,3.03
2019-05-12T12:45:40.253Z,2.53
2019-05-12T12:48:13.540Z,2.80
2019-05-12T12:50:53.429Z,2.77
2019-05-12T12:56:06.255Z,2.50
2019-05-12T12:58:37.901Z,2.77
2019-05-12T13:01:14.157Z,3.13
2019-05-12T13:03:46.126Z,2.60
2019-05-12T13:06:43.728Z,2.80
2019-05-12T13:09:33.422Z,3.00
2019-05-12T13:12:20.441Z,2.43
2019-05-12T13:14:53.228Z,2.77
2019-05-12T13:17:36.520Z,3.20
2019-05-12T13:20:05.707Z,2.90
2019-05-12T13:22:59.499Z,3.10
2019-05-12T13:25:33.720Z,3.17
2019-05-12T13:28:18.639Z,2.70
2019-05-12T13:30:49.675Z,2.97
2019-05-12T13:33:44.238Z,3.17
2019-05-12T13:36:35.457Z,3.70
2019-05-12T13:39:16.435Z,3.57
2019-05-12T13:42:00.242Z,3.20
2019-05-12T13:44:36.442Z,3.60
2019-05-12T13:47:21.491Z,3.10
2019-05-12T13:49:54.417Z,3.50
2019-05-12T13:52:30.160Z,3.53
2019-05-12T13:55:00.215Z,3.50
2019-05-12T13:57:34.254Z,3.97
2019-05-12T14:00:14.926Z,3.73
2019-05-12T14:02:55.536Z,4.00
2019-05-12T14:05:27.217Z,4.00
2019-05-12T14:08:03.727Z,4.40
2019-05-12T14:10:46.966Z,4.37
2019-05-12T14:13:14.177Z,4.10
2019-05-12T14:15:48.763Z,4.40
2019-05-12T14:18:22.777Z,3.80
2019-05-12T14:21:00.211Z,4.70
2019-05-12T14:23:28.573Z,4.23
2019-05-12T14:26:02.126Z,3.70
2019-05-12T14:28:44.315Z,4.50
2019-05-12T14:31:24.446Z,4.10
2019-05-12T14:33:46.400Z,4.53
2019-05-12T14:36:22.119Z,4.37
2019-05-12T14:39:09.890Z,6.10
2019-05-12T14:41:44.398Z,8.30
2019-05-12T14:44:15.175Z,5.00
2019-05-12T14:46:58.605Z,7.00
2019-05-12T14:49:30.612Z,5.20
2019-05-12T14:52:06.345Z,5.23
2019-05-12T14:54:37.722Z,5.80
2019-05-12T14:57:09.327Z,5.60
2019-05-12T14:59:41.209Z,5.90
2019-05-12T15:02:13.623Z,5.50
2019-05-12T15:05:00.131Z,5.33
2019-05-12T15:07:51.128Z,5.20
2019-05-12T15:10:16.388Z,5.07
2019-05-12T15:12:47.825Z,5.10
2019-05-12T15:15:24.276Z,5.00
2019-05-12T15:18:03.669Z,4.60
2019-05-12T15:20:29.145Z,4.30
2019-05-12T15:23:00.726Z,4.17
2019-05-12T15:25:35.319Z,4.77
2019-05-12T15:28:23.812Z,4.50
2019-05-12T15:31:04.112Z,4.30
2019-05-12T15:33:35.528Z,4.50
2019-05-12T15:36:13.687Z,4.27
2019-05-12T15:38:49.061Z,4.20
2019-05-12T15:41:20.479Z,4.17
2019-05-12T15:43:55.937Z,4.43
2019-05-12T15:46:43.463Z,4.90
2019-05-12T15:49:49.423Z,4.57
2019-05-12T15:52:54.686Z,4.30
2019-05-12T15:55:32.825Z,5.07
2019-05-12T15:58:36.754Z,5.30
2019-05-12T16:01:30.329Z,6.10
2019-05-12T16:04:15.412Z,4.70
2019-05-12T16:07:29.480Z,5.20
2019-05-12T16:10:04.710Z,5.00
2019-05-12T16:13:15.495Z,5.47
2019-05-12T16:16:02.868Z,4.93
2019-05-12T16:18:50.642Z,6.00
2019-05-12T16:21:56.753Z,5.83
2019-05-12T16:24:34.077Z,5.00
2019-05-12T16:27:41.433Z,5.90
2019-05-12T16:30:20.319Z,5.13
2019-05-12T16:32:50.861Z,5.60
2019-05-12T16:35:59.897Z,5.90
2019-05-12T16:38:33.515Z,5.43
2019-05-12T16:44:30.418Z,4.93
2019-05-12T16:47:04.152Z,9.60
2019-05-12T16:50:15.754Z,7.60
2019-05-12T16:53:02.243Z,6.50
2019-05-12T16:56:09.607Z,6.43
2019-05-12T16:59:21.962Z,6.27
2019-05-12T17:02:38.380Z,6.27
2019-05-12T17:05:35.469Z,5.80
2019-05-12T17:08:43.795Z,6.83
2019-05-12T17:11:52.820Z,4.90
2019-05-12T17:14:24.200Z,5.97
2019-05-12T17:17:33.559Z,7.90
2019-05-12T17:20:28.812Z,5.70
2019-05-12T17:23:00.552Z,7.10
2019-05-12T17:25:44.819Z,6.47
2019-05-12T17:28:26.525Z,6.30
2019-05-12T17:30:59.578Z,6.20
2019-05-12T17:33:31.076Z,6.63
2019-05-12T17:36:11.819Z,6.87
2019-05-12T17:38:51.168Z,7.97
2019-05-12T17:41:31.436Z,7.70
2019-05-12T17:44:04.369Z,7.00
2019-05-12T17:46:47.485Z,7.03
2019-05-12T17:49:34.793Z,8.20
2019-05-12T17:52:13.114Z,8.87
2019-05-12T17:54:47.623Z,7.93
2019-05-12T17:57:20.091Z,7.53
2019-05-12T18:00:06.319Z,7.90
2019-05-12T18:02:49.320Z,8.40
2019-05-12T18:05:19.260Z,15.10
2019-05-12T18:08:07.402Z,14.20
2019-05-12T18:10:43.493Z,11.03
2019-05-12T18:13:29.239Z,9.93
2019-05-12T18:16:11.491Z,10.10
2019-05-12T18:18:59.547Z,9.57
2019-05-12T18:21:31.170Z,9.53
2019-05-12T18:24:08.848Z,9.97
2019-05-12T18:26:40.286Z,9.90
2019-05-12T18:29:28.220Z,8.50
2019-05-12T18:32:24.209Z,9.00
2019-05-12T18:34:56.697Z,9.53
2019-05-12T18:37:28.926Z,9.73
2019-05-12T18:40:04.096Z,10.87
2019-05-12T18:42:41.214Z,12.03
2019-05-12T18:48:14.314Z,7.03
2019-05-12T18:50:50.242Z,6.50
2019-05-12T18:53:31.301Z,5.73
2019-05-12T18:56:21.901Z,5.07
2019-05-12T18:59:11.640Z,5.57
2019-05-12T19:01:40.359Z,6.27
2019-05-12T19:04:14.167Z,5.50
2019-05-12T19:06:59.355Z,4.27
2019-05-12T19:09:33.501Z,4.67
2019-05-12T19:12:16.059Z,5.10
2019-05-12T19:14:54.717Z,4.60
2019-05-12T19:17:39.966Z,4.97
2019-05-12T19:20:19.569Z,5.10
2019-05-12T19:22:59.384Z,5.33
2019-05-12T19:25:30.156Z,5.00
2019-05-12T19:31:00.830Z,5.43
2019-05-12T19:33:27.990Z,5.10
2019-05-12T19:36:19.466Z,4.90
2019-05-12T19:38:50.759Z,5.37
2019-05-12T19:41:24.689Z,4.87
2019-05-12T19:43:56.914Z,5.87
2019-05-12T19:46:39.804Z,5.40
2019-05-12T19:49:09.438Z,5.03
2019-05-12T19:51:40.846Z,4.60
2019-05-12T19:54:13.978Z,4.90
2019-05-12T19:56:46.972Z,5.37
2019-05-12T19:59:18.404Z,5.40
2019-05-12T20:01:49.711Z,5.17
2019-05-12T20:04:30.790Z,5.83
2019-05-12T20:06:54.557Z,5.23
2019-05-12T20:09:26.049Z,6.13
2019-05-12T20:12:01.350Z,5.40
2019-05-12T20:14:30.371Z,5.70
2019-05-12T20:25:53.657Z,5.67
2019-05-12T20:28:26.539Z,5.43
2019-05-12T20:31:03.868Z,5.60
2019-05-12T20:34:11.131Z,5.37
2019-05-12T20:40:04.407Z,6.30
2019-05-12T20:43:07.852Z,6.83
2019-05-12T20:51:34.494Z,7.10
2019-05-12T20:58:08.152Z,7.70
2019-05-12T21:01:07.287Z,8.50
2019-05-12T21:03:52.091Z,8.87
2019-05-12T21:06:41.560Z,9.07
2019-05-12T21:09:34.887Z,9.27
2019-05-12T21:20:24.801Z,9.07
2019-05-12T21:23:07.137Z,8.07
2019-05-12T21:25:52.088Z,8.50
2019-05-12T21:28:23.641Z,9.60
2019-05-12T21:30:56.046Z,10.20
2019-05-12T21:33:31.281Z,9.90
2019-05-12T21:36:03.649Z,10.63
2019-05-12T21:38:36.663Z,11.20
2019-05-12T21:41:10.009Z,11.10
2019-05-12T21:43:54.406Z,12.43
2019-05-12T21:46:27.910Z,12.60
2019-05-12T21:49:15.491Z,12.27
2019-05-12T21:57:31.173Z,14.33
2019-05-12T21:59:59.892Z,16.17
2019-05-12T22:02:34.126Z,14.27
2019-05-12T22:05:06.599Z,16.63
2019-05-12T22:07:39.928Z,17.70
2019-05-12T22:10:15.351Z,16.57
2019-05-12T22:12:44.747Z,16.50
2019-05-12T22:15:28.167Z,16.60
2019-05-12T22:18:04.168Z,17.43
2019-05-12T22:20:35.242Z,18.00
2019-05-12T22:23:11.545Z,18.97
2019-05-12T22:25:40.427Z,18.93
2019-05-12T22:28:15.188Z,18.53
2019-05-12T22:30:46.511Z,19.90
2019-05-12T22:33:20.803Z,19.03
2019-05-12T22:36:04.726Z,18.30
2019-05-12T22:38:25.400Z,18.70
2019-05-12T22:40:59.561Z,18.77
2019-05-12T22:43:31.568Z,19.30
2019-05-12T22:46:04.538Z,18.40
2019-05-12T22:48:40.607Z,18.10
2019-05-12T22:51:23.170Z,19.07
2019-05-12T22:53:47.054Z,18.30
2019-05-12T22:56:18.518Z,19.37
2019-05-12T22:58:52.130Z,18.20
2019-05-12T23:01:34.666Z,19.30
2019-05-12T23:04:03.667Z,20.87
2019-05-12T23:06:42.236Z,20.20
2019-05-12T23:09:09.277Z,20.10
2019-05-12T23:11:40.782Z,19.70
2019-05-12T23:14:20.755Z,21.10
2019-05-12T23:16:46.919Z,21.23
2019-05-12T23:19:18.398Z,21.40
2019-05-12T23:21:57.157Z,20.77
2019-05-12T23:24:23.760Z,20.67
2019-05-12T23:26:55.411Z,20.47
2019-05-12T23:29:31.012Z,20.87
2019-05-12T23:32:07.494Z,21.33
2019-05-12T23:34:34.811Z,20.50
2019-05-12T23:37:06.597Z,20.07
2019-05-12T23:39:40.369Z,19.70
2019-05-12T23:42:13.623Z,20.60
2019-05-12T23:44:45.265Z,21.27
2019-05-12T23:47:16.820Z,19.90
2019-05-12T23:49:48.300Z,21.63
2019-05-12T23:52:40.178Z,20.47
2019-05-12T23:55:13.804Z,21.37
2019-05-12T23:57:45.071Z,21.50
